createdAt,value
2023-03-03T00:00:14.572Z,0.00
2023-03-03T00:01:14.583Z,0.00
2023-03-03T00:02:14.604Z,0.00
2023-03-03T00:03:14.563Z,0.00
2023-03-03T00:04:14.522Z,0.00
2023-03-03T00:05:14.536Z,0.00
2023-03-03T00:06:14.561Z,0.00
2023-03-03T00:07:14.499Z,0.00
2023-03-03T00:08:14.452Z,0.00
2023-03-03T00:09:14.476Z,0.00
2023-03-03T00:10:14.442Z,0.00
2023-03-03T00:11:14.508Z,0.00
2023-03-03T00:12:14.412Z,0.00
2023-03-03T00:13:14.467Z,0.00
2023-03-03T00:14:14.383Z,0.00
2023-03-03T00:15:14.422Z,0.00
2023-03-03T00:16:14.473Z,0.00
2023-03-03T00:17:14.403Z,0.00
2023-03-03T00:18:14.347Z,0.00
2023-03-03T00:19:14.373Z,0.00
2023-03-03T00:20:14.323Z,0.00
2023-03-03T00:21:14.378Z,0.00
2023-03-03T00:22:14.291Z,0.00
2023-03-03T00:23:14.344Z,0.00
2023-03-03T00:24:14.306Z,0.00
2023-03-03T00:25:14.258Z,0.00
2023-03-03T00:26:14.281Z,0.00
2023-03-03T00:27:14.282Z,0.00
2023-03-03T00:28:14.253Z,0.00
2023-03-03T00:29:14.225Z,0.00
2023-03-03T00:30:14.235Z,0.00
2023-03-03T00:31:14.262Z,0.00
2023-03-03T00:32:14.235Z,0.00
2023-03-03T00:33:14.195Z,0.00
2023-03-03T00:34:14.183Z,0.00
2023-03-03T00:35:14.165Z,0.00
2023-03-03T00:36:14.150Z,0.00
2023-03-03T00:37:14.110Z,0.00
2023-03-03T00:38:14.161Z,0.00
2023-03-03T00:39:14.120Z,0.00
2023-03-03T00:40:14.230Z,0.00
2023-03-03T00:41:14.090Z,0.00
2023-03-03T00:42:14.084Z,0.00
2023-03-03T00:43:14.071Z,0.00
2023-03-03T00:44:14.067Z,0.00
2023-03-03T00:45:14.042Z,0.00
2023-03-03T00:46:14.094Z,0.00
2023-03-03T00:47:14.011Z,0.00
2023-03-03T00:48:14.031Z,0.00
2023-03-03T00:49:13.998Z,0.00
2023-03-03T00:50:14.029Z,0.00
2023-03-03T00:51:15.086Z,0.00
2023-03-03T00:52:13.987Z,0.00
2023-03-03T00:53:13.946Z,0.00
2023-03-03T00:54:13.950Z,0.00
2023-03-03T00:55:13.938Z,0.00
2023-03-03T00:56:13.947Z,0.00
2023-03-03T00:57:13.893Z,0.00
2023-03-03T00:58:13.918Z,0.00
2023-03-03T00:59:13.880Z,0.00
2023-03-03T01:00:13.882Z,0.00
2023-03-03T01:01:13.886Z,0.00
2023-03-03T01:02:13.913Z,0.00
2023-03-03T01:03:13.830Z,0.00
2023-03-03T01:04:14.538Z,0.00
2023-03-03T01:05:13.802Z,0.00
2023-03-03T01:06:13.806Z,0.00
2023-03-03T01:07:13.776Z,0.00
2023-03-03T01:08:13.849Z,0.00
2023-03-03T01:09:13.779Z,0.00
2023-03-03T01:10:13.778Z,0.00
2023-03-03T01:11:13.739Z,0.00
2023-03-03T01:12:13.757Z,0.00
2023-03-03T01:13:13.749Z,0.00
2023-03-03T01:14:13.750Z,0.00
2023-03-03T01:15:13.706Z,0.00
2023-03-03T01:16:13.743Z,0.00
2023-03-03T01:17:13.678Z,0.00
2023-03-03T01:18:13.685Z,0.00
2023-03-03T01:19:13.652Z,0.00
2023-03-03T01:20:13.655Z,0.00
2023-03-03T01:21:13.642Z,0.00
2023-03-03T01:22:13.635Z,0.00
2023-03-03T01:23:13.594Z,0.00
2023-03-03T01:24:13.635Z,0.00
2023-03-03T01:25:13.633Z,0.00
2023-03-03T01:26:13.637Z,0.00
2023-03-03T01:27:13.562Z,0.00
2023-03-03T01:28:13.554Z,0.00
2023-03-03T01:29:13.536Z,0.00
2023-03-03T01:30:13.569Z,0.00
2023-03-03T01:31:13.536Z,0.00
2023-03-03T01:32:13.616Z,0.00
2023-03-03T01:33:13.511Z,0.00
2023-03-03T01:34:13.494Z,0.00
2023-03-03T01:35:13.452Z,0.00
2023-03-03T01:36:13.512Z,0.00
2023-03-03T01:37:13.445Z,0.00
2023-03-03T01:38:13.473Z,0.00
2023-03-03T01:39:13.446Z,0.00
2023-03-03T01:40:13.442Z,0.00
2023-03-03T01:41:13.736Z,0.00
2023-03-03T01:42:13.410Z,0.00
2023-03-03T01:43:13.391Z,0.00
2023-03-03T01:44:13.397Z,0.00
2023-03-03T01:45:13.380Z,0.00
2023-03-03T01:46:13.444Z,0.00
2023-03-03T01:47:13.337Z,0.00
2023-03-03T01:48:13.367Z,0.00
2023-03-03T01:49:13.326Z,0.00
2023-03-03T01:50:13.344Z,0.00
2023-03-03T01:51:13.322Z,0.00
2023-03-03T01:52:13.316Z,0.00
2023-03-03T01:53:13.300Z,0.00
2023-03-03T01:54:13.279Z,0.00
2023-03-03T01:55:13.261Z,0.00
2023-03-03T01:56:13.262Z,0.00
2023-03-03T01:57:13.231Z,0.00
2023-03-03T01:58:13.236Z,0.00
2023-03-03T01:59:13.197Z,0.00
2023-03-03T02:00:13.247Z,0.00
2023-03-03T02:01:13.200Z,0.00
2023-03-03T02:02:13.269Z,0.00
2023-03-03T02:03:13.176Z,0.00
2023-03-03T02:04:13.186Z,0.00
2023-03-03T02:05:13.180Z,0.00
2023-03-03T02:06:13.168Z,0.00
2023-03-03T02:07:13.134Z,0.00
2023-03-03T02:08:13.157Z,0.00
2023-03-03T02:09:13.106Z,0.00
2023-03-03T02:10:13.119Z,0.00
2023-03-03T02:11:13.087Z,0.00
2023-03-03T02:12:13.087Z,0.00
2023-03-03T02:13:13.059Z,0.00
2023-03-03T02:14:13.059Z,0.00
2023-03-03T02:15:13.054Z,0.00
2023-03-03T02:16:13.077Z,0.00
2023-03-03T02:17:13.022Z,0.00
2023-03-03T02:18:13.031Z,0.00
2023-03-03T02:19:13.024Z,0.00
2023-03-03T02:20:13.035Z,0.00
2023-03-03T02:21:12.990Z,0.00
2023-03-03T02:22:12.996Z,0.00
2023-03-03T02:23:12.963Z,0.00
2023-03-03T02:24:12.991Z,0.00
2023-03-03T02:25:12.949Z,0.00
2023-03-03T02:26:12.966Z,0.00
2023-03-03T02:27:12.909Z,0.00
2023-03-03T02:28:12.919Z,0.00
2023-03-03T02:29:12.921Z,0.00
2023-03-03T02:30:13.270Z,0.00
2023-03-03T02:31:13.004Z,0.00
2023-03-03T02:32:12.874Z,0.00
2023-03-03T02:33:12.840Z,0.00
2023-03-03T02:34:12.851Z,0.00
2023-03-03T02:35:12.813Z,0.00
2023-03-03T02:36:12.830Z,0.00
2023-03-03T02:37:12.804Z,0.00
2023-03-03T02:38:12.801Z,0.00
2023-03-03T02:39:12.782Z,0.00
2023-03-03T02:40:12.781Z,0.00
2023-03-03T02:41:12.757Z,0.00
2023-03-03T02:42:12.782Z,0.00
2023-03-03T02:43:12.742Z,0.00
2023-03-03T02:44:12.761Z,0.00
2023-03-03T02:45:12.717Z,0.00
2023-03-03T02:46:12.775Z,0.00
2023-03-03T02:47:12.676Z,0.00
2023-03-03T02:48:12.694Z,0.00
2023-03-03T02:49:12.683Z,0.00
2023-03-03T02:50:12.662Z,0.00
2023-03-03T02:51:12.644Z,0.00
2023-03-03T02:52:12.641Z,0.00
2023-03-03T02:53:12.619Z,0.00
2023-03-03T02:54:12.629Z,0.00
2023-03-03T02:55:12.613Z,0.00
2023-03-03T02:56:12.597Z,0.00
2023-03-03T02:57:12.561Z,0.00
2023-03-03T02:58:12.607Z,0.00
2023-03-03T02:59:12.548Z,0.00
2023-03-03T03:00:12.619Z,0.00
2023-03-03T03:01:12.549Z,0.00
2023-03-03T03:02:12.531Z,0.00
2023-03-03T03:03:12.489Z,0.00
2023-03-03T03:04:12.550Z,0.00
2023-03-03T03:05:12.497Z,0.00
2023-03-03T03:06:12.491Z,0.00
2023-03-03T03:07:12.513Z,0.00
2023-03-03T03:08:12.480Z,0.00
2023-03-03T03:09:12.437Z,0.00
2023-03-03T03:10:12.462Z,0.00
2023-03-03T03:11:12.429Z,0.00
2023-03-03T03:12:12.444Z,0.00
2023-03-03T03:13:12.437Z,0.00
2023-03-03T03:14:12.419Z,0.00
2023-03-03T03:15:12.372Z,0.00
2023-03-03T03:16:12.448Z,0.00
2023-03-03T03:17:12.378Z,0.00
2023-03-03T03:18:12.368Z,0.00
2023-03-03T03:19:12.327Z,0.00
2023-03-03T03:20:12.336Z,0.00
2023-03-03T03:21:12.326Z,0.00
2023-03-03T03:22:12.333Z,0.00
2023-03-03T03:23:12.287Z,0.00
2023-03-03T03:24:12.306Z,0.00
2023-03-03T03:25:12.277Z,0.00
2023-03-03T03:26:12.265Z,0.00
2023-03-03T03:27:12.244Z,0.00
2023-03-03T03:28:12.284Z,0.00
2023-03-03T03:29:12.221Z,0.00
2023-03-03T03:30:12.230Z,0.00
2023-03-03T03:31:12.272Z,0.00
2023-03-03T03:32:12.253Z,0.00
2023-03-03T03:33:12.199Z,0.00
2023-03-03T03:34:12.188Z,0.00
2023-03-03T03:35:12.200Z,0.00
2023-03-03T03:36:12.498Z,0.00
2023-03-03T03:37:12.123Z,0.00
2023-03-03T03:38:12.145Z,0.00
2023-03-03T03:39:12.115Z,0.00
2023-03-03T03:40:12.146Z,0.00
2023-03-03T03:41:12.116Z,0.00
2023-03-03T03:42:12.096Z,0.00
2023-03-03T03:43:12.105Z,0.00
2023-03-03T03:44:12.656Z,0.00
2023-03-03T03:45:12.062Z,0.00
2023-03-03T03:46:12.202Z,0.00
2023-03-03T03:47:12.033Z,0.00
2023-03-03T03:48:12.037Z,0.00
2023-03-03T03:49:12.009Z,0.00
2023-03-03T03:50:12.023Z,0.00
2023-03-03T03:51:12.001Z,0.00
2023-03-03T03:52:12.004Z,0.00
2023-03-03T03:53:11.987Z,0.00
2023-03-03T03:54:11.963Z,0.00
2023-03-03T03:55:11.935Z,0.00
2023-03-03T03:56:12.016Z,0.00
2023-03-03T03:57:11.932Z,0.00
2023-03-03T03:58:11.951Z,0.00
2023-03-03T03:59:11.912Z,0.00
2023-03-03T04:00:11.914Z,0.00
2023-03-03T04:01:11.877Z,0.00
2023-03-03T04:02:12.034Z,0.00
2023-03-03T04:03:11.970Z,0.00
2023-03-03T04:04:12.673Z,0.00
2023-03-03T04:05:11.870Z,0.00
2023-03-03T04:06:11.894Z,0.00
2023-03-03T04:07:11.815Z,0.00
2023-03-03T04:08:11.834Z,0.00
2023-03-03T04:09:11.785Z,0.00
2023-03-03T04:10:11.836Z,0.00
2023-03-03T04:11:11.771Z,0.00
2023-03-03T04:12:11.798Z,0.00
2023-03-03T04:13:11.807Z,0.00
2023-03-03T04:14:11.789Z,0.00
2023-03-03T04:15:11.749Z,0.00
2023-03-03T04:16:11.794Z,0.00
2023-03-03T04:17:11.707Z,0.00
2023-03-03T04:18:11.753Z,0.00
2023-03-03T04:19:11.700Z,0.00
2023-03-03T04:20:11.721Z,0.00
2023-03-03T04:21:11.677Z,0.00
2023-03-03T04:22:11.692Z,0.00
2023-03-03T04:23:11.634Z,0.00
2023-03-03T04:24:13.380Z,0.00
2023-03-03T04:25:11.707Z,0.00
2023-03-03T04:26:11.641Z,0.00
2023-03-03T04:27:11.616Z,0.00
2023-03-03T04:28:11.625Z,0.00
2023-03-03T04:29:11.566Z,0.00
2023-03-03T04:30:11.605Z,0.00
2023-03-03T04:31:15.648Z,0.00
2023-03-03T04:32:11.628Z,0.00
2023-03-03T04:33:11.537Z,0.00
2023-03-03T04:34:11.544Z,0.00
2023-03-03T04:35:11.504Z,0.00
2023-03-03T04:36:11.522Z,0.00
2023-03-03T04:37:11.519Z,0.00
2023-03-03T04:38:11.513Z,0.00
2023-03-03T04:39:11.476Z,0.00
2023-03-03T04:40:11.465Z,0.00
2023-03-03T04:41:11.464Z,0.00
2023-03-03T04:42:11.442Z,0.00
2023-03-03T04:43:11.458Z,0.00
2023-03-03T04:44:11.450Z,0.00
2023-03-03T04:45:11.428Z,0.00
2023-03-03T04:46:11.481Z,0.00
2023-03-03T04:47:11.414Z,0.00
2023-03-03T04:48:11.422Z,0.00
2023-03-03T04:49:12.577Z,0.00
2023-03-03T04:50:11.367Z,0.00
2023-03-03T04:51:11.410Z,0.00
2023-03-03T04:52:11.332Z,0.00
2023-03-03T04:53:11.366Z,0.00
2023-03-03T04:54:11.328Z,0.00
2023-03-03T04:55:11.312Z,0.00
2023-03-03T04:56:11.305Z,0.00
2023-03-03T04:57:11.309Z,0.00
2023-03-03T04:58:11.532Z,0.00
2023-03-03T04:59:11.307Z,0.00
2023-03-03T05:00:11.272Z,0.00
2023-03-03T05:01:11.258Z,0.00
2023-03-03T05:02:11.209Z,0.00
2023-03-03T05:03:11.229Z,0.00
2023-03-03T05:04:11.197Z,0.00
2023-03-03T05:05:11.504Z,0.00
2023-03-03T05:06:11.287Z,0.00
2023-03-03T05:07:11.291Z,0.00
2023-03-03T05:08:11.156Z,0.00
2023-03-03T05:09:11.154Z,0.00
2023-03-03T05:10:11.176Z,0.00
2023-03-03T05:11:11.173Z,0.00
2023-03-03T05:12:11.108Z,0.00
2023-03-03T05:13:11.170Z,0.00
2023-03-03T05:14:11.095Z,0.00
2023-03-03T05:15:11.101Z,0.00
2023-03-03T05:16:11.162Z,0.00
2023-03-03T05:17:11.073Z,0.00
2023-03-03T05:18:11.028Z,0.00
2023-03-03T05:19:11.063Z,0.00
2023-03-03T05:20:11.026Z,0.00
2023-03-03T05:21:11.048Z,0.00
2023-03-03T05:22:10.989Z,0.00
2023-03-03T05:23:11.008Z,0.00
2023-03-03T05:24:10.968Z,0.00
2023-03-03T05:25:10.989Z,0.00
2023-03-03T05:26:11.404Z,0.00
2023-03-03T05:27:10.975Z,0.00
2023-03-03T05:28:10.949Z,0.00
2023-03-03T05:29:10.939Z,0.00
2023-03-03T05:30:10.913Z,0.00
2023-03-03T05:31:10.969Z,0.00
2023-03-03T05:32:11.658Z,0.00
2023-03-03T05:33:10.932Z,0.00
2023-03-03T05:34:10.915Z,0.00
2023-03-03T05:35:10.894Z,0.00
2023-03-03T05:36:10.844Z,0.00
2023-03-03T05:37:10.855Z,0.00
2023-03-03T05:38:10.824Z,0.00
2023-03-03T05:39:10.881Z,0.00
2023-03-03T05:40:10.811Z,0.00
2023-03-03T05:41:10.811Z,0.00
2023-03-03T05:42:10.772Z,0.00
2023-03-03T05:43:10.799Z,4.00
2023-03-03T05:44:10.763Z,0.00
2023-03-03T05:45:10.760Z,0.00
2023-03-03T05:46:10.754Z,4.00
2023-03-03T05:47:10.739Z,4.00
2023-03-03T05:48:11.173Z,4.00
2023-03-03T05:49:10.711Z,4.00
2023-03-03T05:50:10.682Z,8.00
2023-03-03T05:51:10.729Z,8.00
2023-03-03T05:52:10.675Z,8.00
2023-03-03T05:53:10.673Z,12.00
2023-03-03T05:54:10.681Z,16.00
2023-03-03T05:55:10.722Z,16.00
2023-03-03T05:56:10.697Z,20.00
2023-03-03T05:57:10.648Z,20.00
2023-03-03T05:58:10.604Z,24.00
2023-03-03T05:59:10.621Z,28.00
2023-03-03T06:00:10.589Z,32.00
2023-03-03T06:01:10.623Z,36.00
2023-03-03T06:02:10.631Z,44.00
2023-03-03T06:03:10.641Z,48.00
2023-03-03T06:04:10.566Z,52.00
2023-03-03T06:05:10.575Z,60.00
2023-03-03T06:06:10.557Z,68.00
2023-03-03T06:07:10.558Z,80.00
2023-03-03T06:08:10.576Z,84.00
2023-03-03T06:09:10.502Z,96.00
2023-03-03T06:10:10.481Z,104.00
2023-03-03T06:11:10.492Z,116.00
2023-03-03T06:12:10.445Z,128.00
2023-03-03T06:13:10.537Z,144.00
2023-03-03T06:14:10.430Z,156.00
2023-03-03T06:15:10.492Z,164.00
2023-03-03T06:16:10.649Z,184.00
2023-03-03T06:17:10.431Z,196.00
2023-03-03T06:18:10.381Z,208.00
2023-03-03T06:19:10.774Z,228.00
2023-03-03T06:20:10.398Z,240.00
2023-03-03T06:21:10.672Z,256.00
2023-03-03T06:22:10.361Z,272.00
2023-03-03T06:23:10.363Z,288.00
2023-03-03T06:24:10.339Z,304.00
2023-03-03T06:25:10.613Z,320.00
2023-03-03T06:26:10.311Z,340.00
2023-03-03T06:27:10.346Z,356.00
2023-03-03T06:28:10.328Z,372.00
2023-03-03T06:29:10.318Z,388.00
2023-03-03T06:30:10.258Z,404.00
2023-03-03T06:31:10.258Z,424.00
2023-03-03T06:32:10.293Z,440.00
2023-03-03T06:33:10.263Z,456.00
2023-03-03T06:34:10.227Z,476.00
2023-03-03T06:35:10.245Z,492.00
2023-03-03T06:36:10.197Z,504.00
2023-03-03T06:37:10.205Z,524.00
2023-03-03T06:38:10.369Z,540.00
2023-03-03T06:39:10.176Z,560.00
2023-03-03T06:40:10.389Z,572.00
2023-03-03T06:41:10.415Z,588.00
2023-03-03T06:42:10.120Z,600.00
2023-03-03T06:43:10.404Z,612.00
2023-03-03T06:44:10.108Z,624.00
2023-03-03T06:45:10.125Z,640.00
2023-03-03T06:46:10.341Z,656.00
2023-03-03T06:47:10.346Z,668.00
2023-03-03T06:48:10.134Z,692.00
2023-03-03T06:49:10.157Z,696.00
2023-03-03T06:50:10.053Z,728.00
2023-03-03T06:51:10.063Z,752.00
2023-03-03T06:52:10.026Z,776.00
2023-03-03T06:53:10.048Z,820.00
2023-03-03T06:54:09.997Z,800.00
2023-03-03T06:55:10.015Z,816.00
2023-03-03T06:56:09.992Z,824.00
2023-03-03T06:57:10.103Z,828.00
2023-03-03T06:58:09.941Z,848.00
2023-03-03T06:59:09.969Z,868.00
2023-03-03T07:00:09.932Z,884.00
2023-03-03T07:01:09.949Z,912.00
2023-03-03T07:02:09.915Z,944.00
2023-03-03T07:03:09.921Z,984.00
2023-03-03T07:04:09.951Z,1016.00
2023-03-03T07:05:09.905Z,1012.00
2023-03-03T07:06:09.890Z,1032.00
2023-03-03T07:07:09.888Z,1020.00
2023-03-03T07:08:09.971Z,1024.00
2023-03-03T07:09:09.946Z,1044.00
2023-03-03T07:10:09.842Z,1064.00
2023-03-03T07:11:09.849Z,1072.00
2023-03-03T07:12:09.797Z,1080.00
2023-03-03T07:13:09.807Z,1084.00
2023-03-03T07:14:09.798Z,1096.00
2023-03-03T07:15:09.805Z,1120.00
2023-03-03T07:16:09.771Z,1116.00
2023-03-03T07:17:09.780Z,1116.00
2023-03-03T07:18:09.751Z,1136.00
2023-03-03T07:19:09.762Z,1144.00
2023-03-03T07:20:09.714Z,1164.00
2023-03-03T07:21:09.752Z,1176.00
2023-03-03T07:22:09.801Z,1200.00
2023-03-03T07:23:09.701Z,1216.00
2023-03-03T07:24:09.664Z,1228.00
2023-03-03T07:25:09.684Z,1248.00
2023-03-03T07:26:09.653Z,1252.00
2023-03-03T07:27:09.667Z,1260.00
2023-03-03T07:28:09.635Z,1276.00
2023-03-03T07:29:09.660Z,1288.00
2023-03-03T07:30:09.614Z,1292.00
2023-03-03T07:31:09.663Z,1308.00
2023-03-03T07:32:09.658Z,1320.00
2023-03-03T07:33:09.609Z,1344.00
2023-03-03T07:34:09.584Z,1336.00
2023-03-03T07:35:09.619Z,1336.00
2023-03-03T07:36:09.532Z,1344.00
2023-03-03T07:37:09.577Z,1364.00
2023-03-03T07:38:09.535Z,1380.00
2023-03-03T07:39:09.532Z,1392.00
2023-03-03T07:40:09.594Z,1384.00
2023-03-03T07:41:09.586Z,1376.00
2023-03-03T07:42:10.918Z,1392.00
2023-03-03T07:43:09.518Z,1404.00
2023-03-03T07:44:09.473Z,1400.00
2023-03-03T07:45:09.462Z,1416.00
2023-03-03T07:46:09.693Z,1416.00
2023-03-03T07:47:09.510Z,1432.00
2023-03-03T07:48:09.513Z,1468.00
2023-03-03T07:49:09.765Z,1472.00
2023-03-03T07:50:09.394Z,1480.00
2023-03-03T07:51:09.395Z,1472.00
2023-03-03T07:52:09.398Z,1492.00
2023-03-03T07:53:09.459Z,1500.00
2023-03-03T07:54:09.344Z,1508.00
2023-03-03T07:55:09.362Z,1512.00
2023-03-03T07:56:09.403Z,1516.00
2023-03-03T07:57:09.363Z,1532.00
2023-03-03T07:58:09.284Z,1540.00
2023-03-03T07:59:09.317Z,1540.00
2023-03-03T08:00:09.328Z,1552.00
2023-03-03T08:01:09.293Z,1560.00
2023-03-03T08:02:09.359Z,1560.00
2023-03-03T08:03:09.273Z,1576.00
2023-03-03T08:04:09.303Z,1576.00
2023-03-03T08:05:09.336Z,1592.00
2023-03-03T08:06:09.212Z,1596.00
2023-03-03T08:07:09.240Z,1608.00
2023-03-03T08:08:09.229Z,1648.00
2023-03-03T08:09:09.298Z,1660.00
2023-03-03T08:10:09.362Z,1640.00
2023-03-03T08:11:09.198Z,1644.00
2023-03-03T08:12:09.142Z,1652.00
2023-03-03T08:13:09.159Z,1636.00
2023-03-03T08:14:09.123Z,1656.00
2023-03-03T08:15:09.132Z,1652.00
2023-03-03T08:16:09.630Z,1668.00
2023-03-03T08:17:09.109Z,1672.00
2023-03-03T08:18:09.059Z,1652.00
2023-03-03T08:19:09.079Z,1664.00
2023-03-03T08:20:09.036Z,1660.00
2023-03-03T08:21:09.043Z,1680.00
2023-03-03T08:22:09.091Z,1692.00
2023-03-03T08:23:09.036Z,1704.00
2023-03-03T08:24:08.994Z,1704.00
2023-03-03T08:25:09.006Z,1712.00
2023-03-03T08:26:08.988Z,1732.00
2023-03-03T08:27:08.985Z,1748.00
2023-03-03T08:28:08.966Z,1748.00
2023-03-03T08:29:08.969Z,1752.00
2023-03-03T08:30:09.629Z,1756.00
2023-03-03T08:31:18.444Z,1748.00
2023-03-03T08:32:10.315Z,1752.00
2023-03-03T08:33:09.456Z,1752.00
2023-03-03T08:34:09.372Z,1768.00
2023-03-03T08:35:09.460Z,1772.00
2023-03-03T08:36:08.860Z,1764.00
2023-03-03T08:37:08.948Z,1764.00
2023-03-03T08:38:08.868Z,1772.00
2023-03-03T08:39:08.969Z,1776.00
2023-03-03T08:40:08.867Z,1780.00
2023-03-03T08:41:09.078Z,1788.00
2023-03-03T08:42:08.810Z,1796.00
2023-03-03T08:43:08.813Z,1800.00
2023-03-03T08:44:08.811Z,1800.00
2023-03-03T08:45:08.825Z,1804.00
2023-03-03T08:46:08.883Z,1808.00
2023-03-03T08:47:08.772Z,1820.00
2023-03-03T08:48:08.735Z,1820.00
2023-03-03T08:49:08.744Z,1824.00
2023-03-03T08:50:08.729Z,1824.00
2023-03-03T08:51:08.765Z,1820.00
2023-03-03T08:52:08.746Z,1816.00
2023-03-03T08:53:08.700Z,1820.00
2023-03-03T08:54:08.665Z,1820.00
2023-03-03T08:55:08.924Z,1808.00
2023-03-03T08:56:08.678Z,1832.00
2023-03-03T08:57:08.685Z,1836.00
2023-03-03T08:58:08.638Z,1848.00
2023-03-03T08:59:08.624Z,1856.00
2023-03-03T09:00:08.625Z,1860.00
2023-03-03T09:01:08.568Z,1864.00
2023-03-03T09:02:08.646Z,1872.00
2023-03-03T09:03:08.664Z,1880.00
2023-03-03T09:04:08.623Z,1888.00
2023-03-03T09:05:08.541Z,1888.00
2023-03-03T09:06:08.788Z,1892.00
2023-03-03T09:07:08.673Z,1900.00
2023-03-03T09:08:08.522Z,1908.00
2023-03-03T09:09:08.498Z,1908.00
2023-03-03T09:10:08.505Z,1916.00
2023-03-03T09:11:08.482Z,1920.00
2023-03-03T09:12:08.485Z,1920.00
2023-03-03T09:13:09.412Z,1924.00
2023-03-03T09:14:08.446Z,1928.00
2023-03-03T09:15:08.436Z,1932.00
2023-03-03T09:16:08.495Z,1928.00
2023-03-03T09:17:08.726Z,1932.00
2023-03-03T09:18:08.392Z,1940.00
2023-03-03T09:19:08.371Z,1944.00
2023-03-03T09:20:08.416Z,1956.00
2023-03-03T09:21:08.758Z,1960.00
2023-03-03T09:22:08.448Z,1956.00
2023-03-03T09:23:08.315Z,1952.00
2023-03-03T09:24:08.473Z,1948.00
2023-03-03T09:25:08.296Z,1948.00
2023-03-03T09:26:08.329Z,1960.00
2023-03-03T09:27:08.274Z,1956.00
2023-03-03T09:28:08.289Z,1952.00
2023-03-03T09:29:08.260Z,1964.00
2023-03-03T09:30:08.253Z,1968.00
2023-03-03T09:31:08.447Z,1952.00
2023-03-03T09:32:08.457Z,1960.00
2023-03-03T09:33:08.423Z,1968.00
2023-03-03T09:34:08.245Z,1980.00
2023-03-03T09:35:08.192Z,1976.00
2023-03-03T09:36:08.204Z,1972.00
2023-03-03T09:37:09.944Z,1968.00
2023-03-03T09:38:08.198Z,1984.00
2023-03-03T09:39:08.467Z,1980.00
2023-03-03T09:40:08.161Z,1992.00
2023-03-03T09:41:08.149Z,1988.00
2023-03-03T09:42:08.142Z,1992.00
2023-03-03T09:43:08.094Z,1992.00
2023-03-03T09:44:08.727Z,1996.00
2023-03-03T09:45:08.231Z,2008.00
2023-03-03T09:46:08.092Z,2008.00
2023-03-03T09:47:08.071Z,2004.00
2023-03-03T09:48:08.080Z,2012.00
2023-03-03T09:49:08.041Z,2016.00
2023-03-03T09:50:08.072Z,2016.00
2023-03-03T09:51:08.010Z,2012.00
2023-03-03T09:52:08.047Z,2016.00
2023-03-03T09:53:08.043Z,2012.00
2023-03-03T09:54:08.008Z,2020.00
2023-03-03T09:55:08.050Z,2020.00
2023-03-03T09:56:08.105Z,2024.00
2023-03-03T09:57:07.970Z,2032.00
2023-03-03T09:58:11.174Z,2028.00
2023-03-03T09:59:07.933Z,2032.00
2023-03-03T10:00:07.940Z,2032.00
2023-03-03T10:01:07.900Z,2028.00
2023-03-03T10:02:07.935Z,2028.00
2023-03-03T10:03:08.027Z,2028.00
2023-03-03T10:04:08.257Z,2020.00
2023-03-03T10:05:07.924Z,2020.00
2023-03-03T10:06:07.879Z,2020.00
2023-03-03T10:07:07.830Z,2024.00
2023-03-03T10:08:07.834Z,2032.00
2023-03-03T10:09:07.817Z,2028.00
2023-03-03T10:10:07.849Z,2032.00
2023-03-03T10:11:07.786Z,2032.00
2023-03-03T10:12:07.815Z,2024.00
2023-03-03T10:13:07.780Z,2016.00
2023-03-03T10:14:08.011Z,2024.00
2023-03-03T10:15:07.754Z,2024.00
2023-03-03T10:16:07.773Z,2024.00
2023-03-03T10:17:07.741Z,2024.00
2023-03-03T10:18:07.724Z,2028.00
2023-03-03T10:19:07.691Z,2032.00
2023-03-03T10:20:07.750Z,2032.00
2023-03-03T10:21:07.726Z,2028.00
2023-03-03T10:22:07.868Z,2020.00
2023-03-03T10:23:07.752Z,2020.00
2023-03-03T10:24:07.669Z,2020.00
2023-03-03T10:25:07.748Z,2020.00
2023-03-03T10:26:07.800Z,2024.00
2023-03-03T10:27:13.883Z,2048.00
2023-03-03T10:28:08.712Z,2048.00
2023-03-03T10:29:07.577Z,2028.00
2023-03-03T10:30:08.006Z,2032.00
2023-03-03T10:31:12.498Z,2028.00
2023-03-03T10:32:08.695Z,2028.00
2023-03-03T10:33:07.640Z,2032.00
2023-03-03T10:34:09.029Z,2028.00
2023-03-03T10:35:07.503Z,2032.00
2023-03-03T10:36:07.984Z,2028.00
2023-03-03T10:37:07.489Z,2028.00
2023-03-03T10:38:07.561Z,2028.00
2023-03-03T10:39:07.518Z,2028.00
2023-03-03T10:40:07.657Z,2028.00
2023-03-03T10:41:07.520Z,2028.00
2023-03-03T10:42:08.766Z,2032.00
2023-03-03T10:43:07.397Z,2028.00
2023-03-03T10:44:07.415Z,2028.00
2023-03-03T10:45:07.397Z,2032.00
2023-03-03T10:46:07.485Z,2032.00
2023-03-03T10:47:07.367Z,2036.00
2023-03-03T10:48:07.417Z,2036.00
2023-03-03T10:49:07.334Z,2036.00
2023-03-03T10:50:07.743Z,2044.00
2023-03-03T10:51:07.977Z,2040.00
2023-03-03T10:52:07.856Z,2036.00
2023-03-03T10:53:07.772Z,2040.00
2023-03-03T10:54:07.296Z,2036.00
2023-03-03T10:55:07.294Z,2036.00
2023-03-03T10:56:07.287Z,2044.00
2023-03-03T10:57:07.308Z,2040.00
2023-03-03T10:58:07.258Z,2044.00
2023-03-03T10:59:07.286Z,2044.00
2023-03-03T11:00:07.272Z,2044.00
2023-03-03T11:01:07.249Z,2040.00
2023-03-03T11:02:07.258Z,2044.00
2023-03-03T11:03:07.225Z,2044.00
2023-03-03T11:04:07.230Z,2044.00
2023-03-03T11:05:07.191Z,2044.00
2023-03-03T11:06:07.159Z,2044.00
2023-03-03T11:07:07.648Z,2040.00
2023-03-03T11:08:07.206Z,2040.00
2023-03-03T11:09:07.126Z,2036.00
2023-03-03T11:10:07.216Z,2036.00
2023-03-03T11:11:07.128Z,2036.00
2023-03-03T11:12:07.105Z,2036.00
2023-03-03T11:13:07.057Z,2040.00
2023-03-03T11:14:07.432Z,2040.00
2023-03-03T11:15:07.047Z,2040.00
2023-03-03T11:16:07.190Z,2036.00
2023-03-03T11:17:07.145Z,2040.00
2023-03-03T11:18:07.034Z,2044.00
2023-03-03T11:19:06.996Z,2040.00
2023-03-03T11:20:07.048Z,2036.00
2023-03-03T11:21:06.992Z,2036.00
2023-03-03T11:22:06.981Z,2036.00
2023-03-03T11:23:06.979Z,2036.00
2023-03-03T11:24:06.980Z,2036.00
2023-03-03T11:25:06.966Z,2040.00
2023-03-03T11:26:06.946Z,2040.00
2023-03-03T11:27:07.185Z,2036.00
2023-03-03T11:28:06.930Z,2040.00
2023-03-03T11:29:06.902Z,2040.00
2023-03-03T11:30:06.893Z,2044.00
2023-03-03T11:31:06.903Z,2044.00
2023-03-03T11:32:06.960Z,2044.00
2023-03-03T11:33:06.834Z,2044.00
2023-03-03T11:34:06.931Z,2040.00
2023-03-03T11:35:06.816Z,2036.00
2023-03-03T11:36:06.845Z,2036.00
2023-03-03T11:37:06.806Z,2040.00
2023-03-03T11:38:06.805Z,2040.00
2023-03-03T11:39:06.788Z,2044.00
2023-03-03T11:40:06.796Z,2044.00
2023-03-03T11:41:06.748Z,2044.00
2023-03-03T11:42:06.760Z,2044.00
2023-03-03T11:43:06.750Z,2040.00
2023-03-03T11:44:06.745Z,2044.00
2023-03-03T11:45:06.713Z,2036.00
2023-03-03T11:46:06.789Z,2040.00
2023-03-03T11:47:06.735Z,2040.00
2023-03-03T11:48:06.745Z,2040.00
2023-03-03T11:49:06.677Z,2040.00
2023-03-03T11:50:06.725Z,2040.00
2023-03-03T11:51:06.649Z,2040.00
2023-03-03T11:52:06.662Z,2032.00
2023-03-03T11:53:06.637Z,2036.00
2023-03-03T11:54:06.743Z,2032.00
2023-03-03T11:55:06.909Z,2028.00
2023-03-03T11:56:06.613Z,2024.00
2023-03-03T11:57:06.565Z,2028.00
2023-03-03T11:58:06.596Z,2028.00
2023-03-03T11:59:06.565Z,2028.00
2023-03-03T12:00:06.576Z,2028.00
2023-03-03T12:01:06.545Z,2032.00
2023-03-03T12:02:06.544Z,2032.00
2023-03-03T12:03:06.508Z,2032.00
2023-03-03T12:04:06.529Z,2028.00
2023-03-03T12:05:06.514Z,2028.00
2023-03-03T12:06:06.554Z,2028.00
2023-03-03T12:07:17.919Z,2024.00
2023-03-03T12:08:07.506Z,2020.00
2023-03-03T12:09:06.447Z,2024.00
2023-03-03T12:10:06.449Z,2024.00
2023-03-03T12:11:06.445Z,2024.00
2023-03-03T12:12:06.449Z,2024.00
2023-03-03T12:13:06.406Z,2024.00
2023-03-03T12:14:06.424Z,2028.00
2023-03-03T12:15:06.390Z,2024.00
2023-03-03T12:16:06.438Z,2028.00
2023-03-03T12:17:06.361Z,2024.00
2023-03-03T12:18:06.367Z,2024.00
2023-03-03T12:19:06.321Z,2024.00
2023-03-03T12:20:06.340Z,2024.00
2023-03-03T12:21:06.324Z,2024.00
2023-03-03T12:24:28.739Z,2020.00
2023-03-03T12:25:28.697Z,2016.00
2023-03-03T12:26:28.653Z,2012.00
2023-03-03T12:27:28.676Z,2016.00
2023-03-03T12:28:28.634Z,2016.00
2023-03-03T12:29:28.648Z,2012.00
2023-03-03T12:30:28.617Z,2008.00
2023-03-03T12:31:28.651Z,2012.00
2023-03-03T12:32:28.644Z,2012.00
2023-03-03T12:33:28.596Z,2004.00
2023-03-03T12:34:28.592Z,2008.00
2023-03-03T12:35:28.673Z,2004.00
2023-03-03T12:36:28.557Z,2000.00
2023-03-03T12:37:28.536Z,1996.00
2023-03-03T12:38:28.557Z,1992.00
2023-03-03T12:39:34.735Z,1992.00
2023-03-03T12:40:29.517Z,1992.00
2023-03-03T12:41:28.597Z,1992.00
2023-03-03T12:42:29.233Z,1996.00